Time;durP1;ratioP1;P1;durP2;ratioP2;P2;SDS_P1;SDS_P2;PMS_P1;PMS_P2;Temp;Humidity;BMP_temperature;BMP_pressure;BME280_temperature;BME280_humidity;BME280_pressure;Samples;Min_cycle;Max_cycle;Signal;HPM_P1;HPM_P2
2022/10/11 00:00:04;;;;;;;;;;;;;;;69.11;0.00;100821.03;5047097;27;20459;-62
2022/10/11 00:02:30;;;;;;;;;;;;;;;69.08;0.00;100817.22;5050782;27;20011;-62
2022/10/11 00:04:56;;;;;;;;;;;;;;;68.66;0.00;100824.41;5045957;28;19952;-62
2022/10/11 00:07:23;;;;;;;;;;;;;;;65.17;0.00;100814.63;5047248;28;19929;-62
2022/10/11 00:09:49;;;;;;;;;;;;;;;64.19;0.00;100809.66;5041809;28;20424;-62
2022/10/11 00:12:15;;;;;;;;;;;;;;;61.34;1.05;100813.38;5043465;28;19921;-62
2022/10/11 00:14:41;;;;;;;;;;;;;;;59.03;1.99;100813.66;5040773;28;20359;-62
2022/10/11 00:17:08;;;;;;;;;;;;;;;57.19;2.72;100811.59;5039156;27;19921;-62
2022/10/11 00:19:34;;;;;;;;;;;;;;;55.86;3.24;100812.25;5041574;28;19924;-62
2022/10/11 00:22:00;;;;;;;;;;;;;;;54.42;4.50;100821.97;5042821;27;19928;-60
2022/10/11 00:24:27;;;;;;;;;;;;;;;55.97;3.58;100815.56;5048120;28;20301;-61
2022/10/11 00:26:53;;;;;;;;;;;;;;;55.73;3.23;100811.06;5042378;27;19931;-61
2022/10/11 00:29:19;;;;;;;;;;;;;;;55.35;3.58;100813.91;5035302;27;19928;-61
2022/10/11 00:31:46;;;;;;;;;;;;;;;54.77;4.33;100812.50;5058638;27;19925;-61
2022/10/11 00:34:14;;;;;;;;;;;;;;;56.23;3.23;100802.72;5052532;27;20413;-61
2022/10/11 00:36:40;;;;;;;;;;;;;;;56.76;3.36;100803.97;5050312;27;20404;-61
2022/10/11 00:39:06;;;;;;;;;;;;;;;58.21;2.07;100800.13;5047965;27;19921;-62
2022/10/11 00:41:33;;;;;;;;;;;;;;;57.31;3.06;100809.00;5051163;27;19923;-62
2022/10/11 00:44:14;;;;;;;;;;;;;;;55.68;2.92;100817.09;5051695;27;19920;-62
2022/10/11 00:46:42;;;;;;;;;;;;;;;54.85;3.43;100807.47;5045416;28;19923;-62
2022/10/11 00:49:17;;;;;;;;;;;;;;;53.89;3.93;100802.72;5055402;27;20024;-62
2022/10/11 00:51:53;;;;;;;;;;;;;;;53.89;3.92;100804.84;5045858;27;19921;-62
2022/10/11 00:54:22;;;;;;;;;;;;;;;53.99;4.41;100803.75;5051860;27;19927;-62
2022/10/11 00:56:50;;;;;;;;;;;;;;;53.06;4.22;100817.09;5051323;28;20012;-62
2022/10/11 00:59:20;;;;;;;;;;;;;;;52.38;4.87;100816.88;5052346;27;19920;-62
2022/10/11 01:01:46;;;;;;;;;;;;;;;52.04;4.88;100817.47;5049390;28;20019;-63
2022/10/11 01:04:13;;;;;;;;;;;;;;;51.18;5.65;100814.84;5046089;27;20011;-62
2022/10/11 01:06:39;;;;;;;;;;;;;;;51.41;6.37;100812.41;5053505;28;19965;-61
2022/10/11 01:09:05;;;;;;;;;;;;;;;51.23;6.63;100816.88;5050258;27;19974;-62
2022/10/11 01:11:33;;;;;;;;;;;;;;;51.70;6.03;100804.81;5055120;27;19924;-61
2022/10/11 01:14:05;;;;;;;;;;;;;;;51.80;6.33;100814.72;5051466;27;19960;-63
2022/10/11 01:16:35;;;;;;;;;;;;;;;51.44;6.21;100809.19;5050196;28;20015;-62
2022/10/11 01:19:23;;;;;;;;;;;;;;;51.13;6.21;100804.09;5051943;27;19924;-62
2022/10/11 01:21:50;;;;;;;;;;;;;;;51.72;6.06;100813.81;5047948;28;19953;-60
2022/10/11 01:24:29;;;;;;;;;;;;;;;51.05;6.28;100804.72;5062960;27;19938;-60
2022/10/11 01:27:07;;;;;;;;;;;;;;;51.67;6.41;100806.72;5052524;28;19921;-61
2022/10/11 01:29:44;;;;;;;;;;;;;;;51.62;5.95;100811.28;5051023;27;19975;-64
2022/10/11 01:32:19;;;;;;;;;;;;;;;51.16;6.09;100814.59;5048523;28;20019;-62
2022/10/11 01:34:55;;;;;;;;;;;;;;;50.68;6.46;100819.13;5050046;27;19922;-61
2022/10/11 01:37:21;;;;;;;;;;;;;;;51.12;6.55;100817.00;5052216;27;19925;-60
2022/10/11 01:39:51;;;;;;;;;;;;;;;50.81;6.56;100816.31;5055161;27;19968;-61
2022/10/11 01:42:18;;;;;;;;;;;;;;;50.31;6.49;100820.56;5052586;28;19921;-61
2022/10/11 01:44:45;;;;;;;;;;;;;;;50.72;6.63;100826.19;5049793;27;20381;-61
2022/10/11 01:47:12;;;;;;;;;;;;;;;50.91;6.37;100828.31;5048007;27;19925;-62
2022/10/11 01:49:39;;;;;;;;;;;;;;;51.03;6.51;100836.34;5047423;27;19928;-61
2022/10/11 01:52:06;;;;;;;;;;;;;;;50.67;6.98;100834.91;5043073;28;19928;-61
2022/10/11 01:54:58;;;;;;;;;;;;;;;50.97;6.26;100844.28;5060809;27;19921;-61
2022/10/11 01:57:41;;;;;;;;;;;;;;;50.57;6.83;100845.28;5044688;28;19927;-61
2022/10/11 02:00:22;;;;;;;;;;;;;;;50.17;7.18;100851.44;5047318;27;19956;-62
2022/10/11 02:02:48;;;;;;;;;;;;;;;50.71;6.56;100849.88;5051956;28;20298;-62
2022/10/11 02:05:17;;;;;;;;;;;;;;;50.43;6.50;100850.16;5048545;27;19956;-63
2022/10/11 02:07:49;;;;;;;;;;;;;;;49.86;7.29;100849.84;5046241;27;20016;-62
2022/10/11 02:10:35;;;;;;;;;;;;;;;50.53;6.65;100857.16;5045670;27;20378;-62
2022/10/11 02:13:05;;;;;;;;;;;;;;;50.55;6.93;100859.50;5049353;27;19925;-62
2022/10/11 02:15:34;;;;;;;;;;;;;;;50.26;7.16;100861.88;5049054;27;19929;-59
2022/10/11 02:18:03;;;;;;;;;;;;;;;50.28;7.42;100865.03;5044785;28;19921;-62
2022/10/11 02:20:31;;;;;;;;;;;;;;;49.67;7.50;100866.28;5045645;27;20488;-62
2022/10/11 02:23:01;;;;;;;;;;;;;;;49.44;7.23;100873.50;5040036;28;19921;-62
2022/10/11 02:25:29;;;;;;;;;;;;;;;49.72;7.71;100876.22;5049137;27;19921;-62
2022/10/11 02:27:57;;;;;;;;;;;;;;;49.34;7.54;100883.78;5108761;27;20490;-62
2022/10/11 02:30:24;;;;;;;;;;;;;;;49.98;6.52;100875.78;5040990;27;19921;-62
2022/10/11 02:32:51;;;;;;;;;;;;;;;49.88;7.09;100883.97;5073618;27;20006;-62
2022/10/11 02:35:18;;;;;;;;;;;;;;;49.31;7.64;100876.97;5063185;27;20019;-61
2022/10/11 02:37:49;;;;;;;;;;;;;;;49.67;6.78;100879.94;5049875;27;19948;-62
2022/10/11 02:40:16;;;;;;;;;;;;;;;48.71;7.89;100883.19;5068218;27;19924;-61
2022/10/11 02:42:44;;;;;;;;;;;;;;;48.94;7.87;100895.47;5083358;27;19925;-61
2022/10/11 02:45:29;;;;;;;;;;;;;;;49.13;7.68;100887.00;5082762;27;20376;-61
2022/10/11 02:47:56;;;;;;;;;;;;;;;49.35;7.56;100900.56;5091694;27;20429;-62
2022/10/11 02:50:23;;;;;;;;;;;;;;;49.43;7.00;100889.25;5073404;27;19963;-62
2022/10/11 02:52:49;;;;;;;;;;;;;;;49.39;7.56;100898.22;5046265;28;20635;-62
2022/10/11 02:55:15;;;;;;;;;;;;;;;49.39;7.23;100897.41;5078571;27;20027;-62
2022/10/11 02:57:42;;;;;;;;;;;;;;;49.39;7.20;100897.41;5048698;27;19927;-61
2022/10/11 03:00:08;;;;;;;;;;;;;;;49.34;7.58;100898.22;5050164;28;20015;-60
2022/10/11 03:02:35;;;;;;;;;;;;;;;49.37;7.36;100897.13;5048901;27;19921;-59
2022/10/11 03:05:01;;;;;;;;;;;;;;;49.31;7.15;100902.97;5047409;28;19968;-60
2022/10/11 03:07:27;;;;;;;;;;;;;;;49.25;7.63;100908.75;5049190;28;19920;-62
2022/10/11 03:09:54;;;;;;;;;;;;;;;48.77;7.86;100919.88;5049382;28;19952;-61
2022/10/11 03:12:20;;;;;;;;;;;;;;;49.00;7.89;100915.63;5049405;28;19920;-60
2022/10/11 03:14:46;;;;;;;;;;;;;;;48.90;7.52;100918.03;5048440;27;19931;-59
2022/10/11 03:17:13;;;;;;;;;;;;;;;48.97;7.61;100916.72;5042907;28;19934;-61
2022/10/11 03:19:39;;;;;;;;;;;;;;;48.89;7.70;100922.22;5046453;27;19921;-61
2022/10/11 03:22:06;;;;;;;;;;;;;;;48.97;7.95;100928.25;5045505;28;19924;-60
2022/10/11 03:24:32;;;;;;;;;;;;;;;48.84;7.83;100930.88;5051449;27;20055;-61
2022/10/11 03:26:58;;;;;;;;;;;;;;;48.76;7.53;100924.09;5048284;28;19920;-60
2022/10/11 03:29:24;;;;;;;;;;;;;;;48.66;8.23;100926.44;5045783;28;19932;-59
2022/10/11 03:31:51;;;;;;;;;;;;;;;48.76;7.62;100926.97;5047926;27;19927;-60
2022/10/11 03:34:17;;;;;;;;;;;;;;;48.78;7.88;100927.22;5066476;27;21296;-60
2022/10/11 03:36:43;;;;;;;;;;;;;;;48.88;7.82;100925.63;5046608;27;19974;-62
2022/10/11 03:39:09;;;;;;;;;;;;;;;48.83;7.85;100935.06;5047882;28;19917;-63
2022/10/11 03:41:36;;;;;;;;;;;;;;;48.71;7.61;100925.69;5046875;27;20004;-60
2022/10/11 03:44:03;;;;;;;;;;;;;;;48.65;7.89;100931.44;5049975;28;20027;-60
2022/10/11 03:46:30;;;;;;;;;;;;;;;48.63;8.24;100931.19;5046568;27;19973;-60
2022/10/11 03:48:56;;;;;;;;;;;;;;;48.62;8.18;100934.59;5047646;28;19923;-61
2022/10/11 03:51:22;;;;;;;;;;;;;;;48.63;7.71;100927.50;5046331;27;19929;-62
2022/10/11 03:53:49;;;;;;;;;;;;;;;48.56;8.32;100928.81;5049075;28;19928;-61
2022/10/11 03:56:15;;;;;;;;;;;;;;;48.51;7.89;100938.25;5047026;27;19920;-60
2022/10/11 03:58:41;;;;;;;;;;;;;;;48.45;8.21;100940.34;5048351;28;19929;-61
2022/10/11 04:01:08;;;;;;;;;;;;;;;48.36;8.63;100943.50;5044482;27;20366;-61
2022/10/11 04:03:34;;;;;;;;;;;;;;;48.13;8.97;100942.69;5044771;27;20016;-61
2022/10/11 04:06:00;;;;;;;;;;;;;;;48.07;8.67;100944.75;5040044;27;19963;-61
2022/10/11 04:08:26;;;;;;;;;;;;;;;47.90;8.91;100947.63;5055792;27;19920;-61
2022/10/11 04:10:53;;;;;;;;;;;;;;;48.02;8.82;100949.22;5045678;27;19970;-60
2022/10/11 04:13:19;;;;;;;;;;;;;;;48.09;8.25;100939.25;5072458;27;20377;-63
2022/10/11 04:15:46;;;;;;;;;;;;;;;48.09;8.12;100940.03;5048698;27;19921;-61
2022/10/11 04:18:12;;;;;;;;;;;;;;;48.03;8.34;100950.78;5116930;27;19966;-60
2022/10/11 04:20:38;;;;;;;;;;;;;;;48.04;8.40;100955.25;5133531;27;20416;-61
2022/10/11 04:23:04;;;;;;;;;;;;;;;48.02;8.30;100954.97;5097012;27;20020;-60
2022/10/11 04:25:31;;;;;;;;;;;;;;;47.99;8.93;100952.38;5096681;27;19921;-60
2022/10/11 04:27:57;;;;;;;;;;;;;;;47.95;8.55;100955.50;5096856;28;19958;-61
2022/10/11 04:30:23;;;;;;;;;;;;;;;48.00;8.98;100946.06;5133356;28;20462;-62
2022/10/11 04:32:49;;;;;;;;;;;;;;;47.94;8.72;100956.81;5133267;27;19916;-62
2022/10/11 04:35:16;;;;;;;;;;;;;;;47.95;9.14;100958.38;5133501;28;19919;-62
2022/10/11 04:37:42;;;;;;;;;;;;;;;47.75;8.79;100965.09;5133479;27;19996;-62
2022/10/11 04:40:09;;;;;;;;;;;;;;;47.67;8.83;100964.03;5132636;28;19919;-60
2022/10/11 04:42:35;;;;;;;;;;;;;;;47.68;9.21;100959.06;5050693;27;19917;-62
2022/10/11 04:45:01;;;;;;;;;;;;;;;47.55;9.06;100963.19;5049607;28;19921;-62
2022/10/11 04:47:27;;;;;;;;;;;;;;;47.43;9.15;100960.78;5049310;28;19925;-60
2022/10/11 04:49:54;;;;;;;;;;;;;;;47.43;9.16;100955.81;5044060;28;19981;-60
2022/10/11 04:52:20;;;;;;;;;;;;;;;47.46;9.16;100962.63;5052198;27;19917;-63
2022/10/11 04:54:46;;;;;;;;;;;;;;;47.38;9.56;100956.56;5061381;27;19973;-61
2022/10/11 04:57:12;;;;;;;;;;;;;;;47.35;9.43;100960.47;5131099;28;20009;-62
2022/10/11 04:59:39;;;;;;;;;;;;;;;47.25;9.07;100968.56;5073942;27;20366;-61
2022/10/11 05:02:05;;;;;;;;;;;;;;;47.26;9.14;100960.69;5081059;27;19998;-61
2022/10/11 05:04:32;;;;;;;;;;;;;;;47.18;9.28;100971.13;5050280;27;19921;-61
2022/10/11 05:06:58;;;;;;;;;;;;;;;47.28;9.54;100965.94;5050276;27;19927;-61
2022/10/11 05:09:24;;;;;;;;;;;;;;;47.27;9.20;100976.66;5049822;27;19921;-61
2022/10/11 05:11:50;;;;;;;;;;;;;;;47.19;9.73;100969.81;5049413;27;20420;-61
2022/10/11 05:14:17;;;;;;;;;;;;;;;46.93;9.33;100973.56;5051956;27;19921;-62
2022/10/11 05:16:43;;;;;;;;;;;;;;;47.08;9.64;100963.97;5049605;28;19968;-62
2022/10/11 05:19:10;;;;;;;;;;;;;;;47.12;9.82;100970.28;5056260;27;20324;-61
2022/10/11 05:21:36;;;;;;;;;;;;;;;47.17;9.83;100978.19;5052869;28;19917;-61
2022/10/11 05:24:02;;;;;;;;;;;;;;;47.27;9.44;100975.88;5053238;27;20393;-61
2022/10/11 05:26:29;;;;;;;;;;;;;;;47.27;9.91;100976.66;5092121;27;19926;-62
2022/10/11 05:28:55;;;;;;;;;;;;;;;47.24;9.41;100977.72;5087694;27;19928;-61
2022/10/11 05:31:21;;;;;;;;;;;;;;;47.22;9.36;100988.94;5052299;28;19953;-60
2022/10/11 05:33:48;;;;;;;;;;;;;;;47.20;9.36;100982.91;5069081;27;20274;-61
2022/10/11 05:36:14;;;;;;;;;;;;;;;47.08;9.90;100981.25;5060882;27;19920;-62
2022/10/11 05:38:40;;;;;;;;;;;;;;;47.12;9.61;100982.56;5073066;27;19944;-61
2022/10/11 05:41:09;;;;;;;;;;;;;;;46.97;10.12;100979.84;5105855;27;19917;-61
2022/10/11 05:43:36;;;;;;;;;;;;;;;46.95;9.47;100985.34;5052860;27;19921;-61
2022/10/11 05:46:02;;;;;;;;;;;;;;;46.92;10.12;100979.84;5052272;28;19917;-61
2022/10/11 05:48:29;;;;;;;;;;;;;;;46.75;9.72;100988.31;5064029;27;19921;-61
2022/10/11 05:50:59;;;;;;;;;;;;;;;46.71;10.20;100984.09;5052449;28;19917;-61
2022/10/11 05:53:25;;;;;;;;;;;;;;;46.66;10.30;100994.25;5053152;27;19956;-61
2022/10/11 05:55:52;;;;;;;;;;;;;;;46.62;9.94;100985.06;5097105;27;19928;-61
2022/10/11 05:58:18;;;;;;;;;;;;;;;46.57;10.30;100985.81;5089178;27;19925;-61
2022/10/11 06:00:44;;;;;;;;;;;;;;;46.55;9.88;100979.78;5095117;27;19958;-61
2022/10/11 06:03:11;;;;;;;;;;;;;;;46.66;10.38;100985.63;5096492;27;19921;-61
2022/10/11 06:05:37;;;;;;;;;;;;;;;46.59;9.89;100986.09;5089527;27;19920;-61
2022/10/11 06:08:05;;;;;;;;;;;;;;;46.44;10.30;100988.31;5095396;27;19930;-61
2022/10/11 06:10:31;;;;;;;;;;;;;;;46.44;10.40;100985.44;5076483;27;19917;-61
2022/10/11 06:12:58;;;;;;;;;;;;;;;46.48;10.13;100988.84;5087374;27;20011;-61
2022/10/11 06:15:24;;;;;;;;;;;;;;;46.50;10.34;100983.38;5095288;27;20372;-60
2022/10/11 06:17:51;;;;;;;;;;;;;;;46.50;10.32;100986.25;5096277;27;19917;-62
2022/10/11 06:20:18;;;;;;;;;;;;;;;46.57;10.14;100988.69;5089099;27;19936;-61
2022/10/11 06:22:44;;;;;;;;;;;;;;;46.60;10.12;100993.41;5094782;27;19919;-61
2022/10/11 06:25:11;;;;;;;;;;;;;;;46.43;10.09;100989.59;5095984;27;20441;-61
2022/10/11 06:27:37;;;;;;;;;;;;;;;46.48;10.75;100986.78;5088799;27;20057;-61
2022/10/11 06:30:04;;;;;;;;;;;;;;;46.60;10.09;100981.91;5095370;27;19923;-61
2022/10/11 06:32:31;;;;;;;;;;;;;;;46.58;10.47;100982.44;5075029;27;19917;-61
2022/10/11 06:34:57;;;;;;;;;;;;;;;46.59;10.42;100980.34;5087264;27;20079;-61
2022/10/11 06:37:23;;;;;;;;;;;;;;;46.54;10.42;100978.22;5096250;27;20303;-61
2022/10/11 06:39:49;;;;;;;;;;;;;;;46.52;10.15;100980.81;5092854;27;20015;-61
2022/10/11 06:42:16;;;;;;;;;;;;;;;46.51;10.14;100979.25;5077215;27;20900;-61
2022/10/11 06:44:42;;;;;;;;;;;;;;;46.50;10.62;100983.38;5083669;27;19926;-61
2022/10/11 06:47:08;;;;;;;;;;;;;;;46.47;10.22;100978.66;5093118;27;20381;-61
2022/10/11 06:49:34;;;;;;;;;;;;;;;46.36;10.73;100974.38;5089601;27;20345;-61
2022/10/11 06:52:01;;;;;;;;;;;;;;;46.37;10.75;100970.19;5097499;27;19923;-60
2022/10/11 06:54:27;;;;;;;;;;;;;;;46.51;10.78;100973.50;5092079;27;19916;-61
2022/10/11 06:56:53;;;;;;;;;;;;;;;46.49;10.35;100973.97;5090172;27;20377;-61
2022/10/11 06:59:19;;;;;;;;;;;;;;;46.45;10.85;100969.75;5097412;27;19919;-61
2022/10/11 07:01:45;;;;;;;;;;;;;;;46.41;10.84;100970.00;5091230;27;19919;-61
2022/10/11 07:04:12;;;;;;;;;;;;;;;46.38;10.48;100970.97;5090983;27;19924;-60
2022/10/11 07:06:40;;;;;;;;;;;;;;;46.14;11.04;100965.50;5096953;27;19980;-61
2022/10/11 07:09:06;;;;;;;;;;;;;;;46.01;10.84;100965.09;5091340;27;19921;-61
2022/10/11 07:11:33;;;;;;;;;;;;;;;45.98;11.21;100960.38;5078448;27;19930;-61
2022/10/11 07:14:01;;;;;;;;;;;;;;;46.06;11.03;100959.44;5079456;27;19969;-61
2022/10/11 07:16:27;;;;;;;;;;;;;;;46.22;11.17;100969.53;5050722;28;20023;-61
2022/10/11 07:18:55;;;;;;;;;;;;;;;46.15;10.76;100966.34;5050883;28;19921;-61
2022/10/11 07:21:21;;;;;;;;;;;;;;;46.03;11.38;100971.16;5050804;28;19916;-61
2022/10/11 07:23:48;;;;;;;;;;;;;;;46.06;11.25;100961.53;5050594;27;20420;-61
2022/10/11 07:26:14;;;;;;;;;;;;;;;45.91;11.50;100961.59;5050536;28;19925;-61
2022/10/11 07:28:41;;;;;;;;;;;;;;;45.90;11.38;100964.97;5050634;28;19921;-61
2022/10/11 07:31:15;;;;;;;;;;;;;;;46.09;11.16;100966.25;5050801;28;20009;-62
2022/10/11 07:33:41;;;;;;;;;;;;;;;46.06;11.20;100962.31;5049715;28;20315;-61
2022/10/11 07:36:08;;;;;;;;;;;;;;;46.13;10.87;100971.78;5049311;27;19916;-62
2022/10/11 07:38:38;;;;;;;;;;;;;;;46.15;10.76;100978.63;5050298;28;19965;-62
2022/10/11 07:41:05;;;;;;;;;;;;;;;45.10;11.48;100975.94;5049600;28;19921;-62
2022/10/11 07:43:31;;;;;;;;;;;;;;;45.49;11.03;100973.63;5050525;28;20409;-62
2022/10/11 07:46:02;;;;;;;;;;;;;;;45.68;11.13;100971.25;5050523;28;19942;-62
2022/10/11 07:48:30;;;;;;;;;;;;;;;45.76;11.27;100973.19;5050335;28;19921;-62
2022/10/11 07:51:13;;;;;;;;;;;;;;;45.56;11.08;100975.25;5050619;27;20012;-62
2022/10/11 07:53:39;;;;;;;;;;;;;;;45.57;11.37;100976.81;5050444;28;19917;-61
2022/10/11 07:56:06;;;;;;;;;;;;;;;45.83;10.88;100976.94;5050651;28;20003;-62
2022/10/11 07:58:32;;;;;;;;;;;;;;;45.99;10.89;100971.38;5050321;28;19923;-62
2022/10/11 08:00:58;;;;;;;;;;;;;;;45.91;10.99;100975.97;5050357;27;19916;-62
2022/10/11 08:03:24;;;;;;;;;;;;;;;45.91;11.16;100978.84;5050391;28;20382;-62
2022/10/11 08:05:51;;;;;;;;;;;;;;;45.85;11.26;100977.22;5050457;28;20338;-62
2022/10/11 08:08:18;;;;;;;;;;;;;;;45.88;11.38;100979.06;5050202;28;20331;-62
2022/10/11 08:10:44;;;;;;;;;;;;;;;45.76;11.35;100981.00;5050064;28;19967;-62
2022/10/11 08:13:11;;;;;;;;;;;;;;;45.69;11.08;100987.19;5050220;28;19921;-62
2022/10/11 08:15:37;;;;;;;;;;;;;;;45.67;11.54;100981.97;5050131;28;20362;-62
2022/10/11 08:18:03;;;;;;;;;;;;;;;45.66;11.18;100977.50;5050397;28;19921;-62
2022/10/11 08:20:31;;;;;;;;;;;;;;;45.60;11.34;100979.47;5048855;28;20434;-62
2022/10/11 08:22:58;;;;;;;;;;;;;;;45.57;11.42;100976.81;5049991;28;19965;-62
2022/10/11 08:25:24;;;;;;;;;;;;;;;45.58;11.41;100979.19;5050127;28;19924;-62
2022/10/11 08:27:50;;;;;;;;;;;;;;;45.65;11.86;100984.56;5049986;28;19921;-62
2022/10/11 08:30:16;;;;;;;;;;;;;;;45.65;11.47;100984.56;5049932;28;20019;-61
2022/10/11 08:32:43;;;;;;;;;;;;;;;45.64;11.34;100982.97;5049904;28;20019;-62
2022/10/11 08:35:09;;;;;;;;;;;;;;;45.63;11.41;100987.16;5050018;28;19924;-62
2022/10/11 08:37:35;;;;;;;;;;;;;;;45.60;11.46;100982.34;5049834;28;19925;-62
2022/10/11 08:40:02;;;;;;;;;;;;;;;45.51;11.92;100973.91;5049891;28;19962;-63
2022/10/11 08:42:39;;;;;;;;;;;;;;;45.51;11.51;100982.50;5049325;28;19921;-62
2022/10/11 08:45:17;;;;;;;;;;;;;;;45.53;11.50;100982.78;5050081;28;19928;-62
2022/10/11 08:47:44;;;;;;;;;;;;;;;45.50;12.11;100980.94;5049834;28;19974;-62
2022/10/11 08:50:16;;;;;;;;;;;;;;;45.46;11.32;100984.03;5049678;28;19917;-62
2022/10/11 08:52:46;;;;;;;;;;;;;;;45.48;11.95;100987.19;5052939;28;19921;-61
2022/10/11 08:55:30;;;;;;;;;;;;;;;45.43;12.01;100990.00;5053370;28;19917;-62
2022/10/11 08:57:58;;;;;;;;;;;;;;;45.28;11.96;100983.50;5053277;28;19921;-61
2022/10/11 09:00:27;;;;;;;;;;;;;;;45.17;12.04;100984.88;5052978;28;19921;-61
2022/10/11 09:03:03;;;;;;;;;;;;;;;45.11;11.73;100986.91;5053138;28;19925;-61
2022/10/11 09:05:33;;;;;;;;;;;;;;;45.22;12.16;100985.47;5053101;28;19966;-62
2022/10/11 09:07:59;;;;;;;;;;;;;;;45.23;11.89;100992.78;5052892;28;20019;-62
2022/10/11 09:10:31;;;;;;;;;;;;;;;45.10;11.78;100984.53;5052709;28;19924;-62
2022/10/11 09:13:16;;;;;;;;;;;;;;;45.12;11.57;100985.59;5052985;28;20016;-61
2022/10/11 09:15:42;;;;;;;;;;;;;;;45.09;11.90;100989.47;5052537;28;19943;-61
2022/10/11 09:18:08;;;;;;;;;;;;;;;45.12;11.78;100981.94;5052600;28;20379;-62
2022/10/11 09:20:42;;;;;;;;;;;;;;;45.17;11.88;100990.63;5052901;27;19921;-62
2022/10/11 09:23:24;;;;;;;;;;;;;;;45.14;12.05;100980.16;5052317;28;19927;-61
2022/10/11 09:26:05;;;;;;;;;;;;;;;44.94;12.12;100983.00;5052140;28;20099;-61
2022/10/11 09:28:50;;;;;;;;;;;;;;;44.92;12.19;100988.44;5052272;28;19980;-62
2022/10/11 09:31:17;;;;;;;;;;;;;;;44.74;12.41;100991.50;5052791;27;19921;-62
2022/10/11 09:33:45;;;;;;;;;;;;;;;44.80;12.02;100992.38;5053023;27;19917;-61
2022/10/11 09:36:24;;;;;;;;;;;;;;;44.82;12.21;100986.94;5052624;28;20019;-63
2022/10/11 09:56:33;;;;;;;;;;;;;;;44.51;12.27;100984.59;5035193;28;20398;-61
2022/10/11 09:59:19;;;;;;;;;;;;;;;44.53;12.72;100988.56;5052384;28;20025;-61
2022/10/11 10:01:45;;;;;;;;;;;;;;;44.52;12.87;100989.03;5052298;28;19920;-61
2022/10/11 10:04:13;;;;;;;;;;;;;;;44.58;12.93;100987.06;5051647;28;20290;-62
2022/10/11 10:06:39;;;;;;;;;;;;;;;44.37;12.84;100997.63;5052141;27;19925;-62
2022/10/11 10:09:32;;;;;;;;;;;;;;;44.38;12.51;100987.75;5051768;28;19917;-61
2022/10/11 10:11:58;;;;;;;;;;;;;;;44.38;12.56;100993.47;5053386;28;19944;-61
2022/10/11 10:14:26;;;;;;;;;;;;;;;44.26;12.71;100992.47;5052075;27;19921;-63
2022/10/11 10:17:12;;;;;;;;;;;;;;;44.15;12.92;100988.59;5051413;27;20389;-61
2022/10/11 10:19:41;;;;;;;;;;;;;;;44.17;13.45;100974.56;5052080;28;19928;-61
2022/10/11 10:22:15;;;;;;;;;;;;;;;44.25;13.08;100978.63;5051939;28;19913;-61
2022/10/11 10:24:42;;;;;;;;;;;;;;;44.31;13.16;100983.19;5051664;28;19966;-61
2022/10/11 10:27:17;;;;;;;;;;;;;;;44.42;13.01;100971.13;5051894;28;20392;-61
2022/10/11 10:29:59;;;;;;;;;;;;;;;44.39;12.96;100972.13;5051954;28;19920;-62
2022/10/11 10:32:44;;;;;;;;;;;;;;;44.40;12.92;100981.50;5051722;28;19936;-62
2022/10/11 10:35:27;;;;;;;;;;;;;;;44.08;12.99;100980.38;5051783;28;19921;-61
2022/10/11 10:38:12;;;;;;;;;;;;;;;44.13;12.75;100971.91;5051701;28;19932;-62
2022/10/11 10:40:48;;;;;;;;;;;;;;;44.11;12.82;100973.69;5051034;28;20024;-62
2022/10/11 10:43:15;;;;;;;;;;;;;;;44.11;12.67;100967.94;5051680;28;20019;-61
2022/10/11 10:45:50;;;;;;;;;;;;;;;44.03;12.57;100975.34;5051474;28;19917;-62
2022/10/11 10:48:35;;;;;;;;;;;;;;;44.05;12.54;100976.41;5051462;28;20393;-62
2022/10/11 10:51:11;;;;;;;;;;;;;;;44.11;12.65;100974.47;5051488;28;19927;-62
2022/10/11 10:53:43;;;;;;;;;;;;;;;44.10;13.00;100969.25;5051437;28;19920;-61
2022/10/11 10:56:11;;;;;;;;;;;;;;;44.12;12.91;100976.06;5051453;28;19921;-62
2022/10/11 10:58:54;;;;;;;;;;;;;;;44.14;12.85;100978.41;5051185;28;19929;-62
2022/10/11 11:01:29;;;;;;;;;;;;;;;43.97;13.14;100978.84;5051479;28;19963;-61
2022/10/11 11:03:56;;;;;;;;;;;;;;;43.66;13.24;100984.22;5051251;28;19943;-62
2022/10/11 11:06:32;;;;;;;;;;;;;;;43.60;13.25;100984.06;5051112;28;19969;-62
2022/10/11 11:09:04;;;;;;;;;;;;;;;43.39;13.44;100985.97;5050605;28;20442;-62
2022/10/11 11:11:48;;;;;;;;;;;;;;;43.64;13.33;100981.03;5051196;28;19921;-62
2022/10/11 11:14:34;;;;;;;;;;;;;;;43.64;13.60;100981.03;5050546;28;19969;-61
2022/10/11 11:17:00;;;;;;;;;;;;;;;43.51;13.67;100983.38;5051165;28;19928;-62
2022/10/11 11:19:52;;;;;;;;;;;;;;;43.71;13.74;100986.41;5051020;28;20401;-62
2022/10/11 11:22:25;;;;;;;;;;;;;;;43.50;13.87;100990.38;5050960;28;19966;-62
2022/10/11 11:25:07;;;;;;;;;;;;;;;43.60;13.82;100991.88;5050847;28;20395;-62
2022/10/11 11:27:52;;;;;;;;;;;;;;;43.56;13.83;100999.84;5050993;28;20411;-61
2022/10/11 11:30:33;;;;;;;;;;;;;;;43.62;13.80;101000.75;5050687;28;19964;-61
2022/10/11 11:33:15;;;;;;;;;;;;;;;43.65;13.78;100994.06;5050979;28;19921;-61
2022/10/11 11:35:44;;;;;;;;;;;;;;;43.67;13.94;100994.38;5050937;28;19928;-61
2022/10/11 11:38:10;;;;;;;;;;;;;;;43.68;13.95;100987.38;5050702;28;19981;-61
2022/10/11 11:40:39;;;;;;;;;;;;;;;43.60;13.85;100997.59;5048881;28;20369;-61
2022/10/11 11:43:20;;;;;;;;;;;;;;;43.65;13.87;100996.94;5051053;28;19923;-61
2022/10/11 11:45:53;;;;;;;;;;;;;;;43.74;13.74;101004.69;5050438;28;19927;-61
2022/10/11 11:48:23;;;;;;;;;;;;;;;43.71;13.62;101004.38;5050646;27;19921;-62
2022/10/11 11:50:59;;;;;;;;;;;;;;;43.75;13.63;101009.13;5050628;27;19935;-62
2022/10/11 11:53:35;;;;;;;;;;;;;;;43.62;13.71;101012.22;5050699;27;19920;-62
2022/10/11 11:56:08;;;;;;;;;;;;;;;43.59;13.71;101011.13;5050518;28;19921;-62
2022/10/11 11:58:40;;;;;;;;;;;;;;;43.60;13.64;101014.78;5050452;27;19944;-62
2022/10/11 12:01:22;;;;;;;;;;;;;;;43.40;13.90;101019.03;5050452;28;20302;-61
2022/10/11 12:03:51;;;;;;;;;;;;;;;43.35;14.09;101022.56;5050768;28;19964;-62
2022/10/11 12:06:22;;;;;;;;;;;;;;;43.49;13.64;101026.00;5050436;27;19917;-62
2022/10/11 12:09:02;;;;;;;;;;;;;;;43.35;14.17;101028.28;5050543;28;19921;-62
2022/10/11 12:11:40;;;;;;;;;;;;;;;43.29;13.90;101033.09;5030134;28;19968;-62
2022/10/11 12:14:15;;;;;;;;;;;;;;;43.27;14.08;101029.91;5030466;28;19925;-61
2022/10/11 12:17:00;;;;;;;;;;;;;;;43.40;13.90;101024.75;5030207;28;19921;-62
2022/10/11 12:19:26;;;;;;;;;;;;;;;43.34;14.12;101032.44;5028995;28;20320;-62
2022/10/11 12:22:12;;;;;;;;;;;;;;;43.29;14.05;101035.97;5030269;28;19917;-62
2022/10/11 12:24:57;;;;;;;;;;;;;;;43.13;14.24;101044.91;5029839;28;19925;-62
2022/10/11 12:27:38;;;;;;;;;;;;;;;43.33;14.20;101033.72;5029872;28;19974;-61
2022/10/11 12:30:24;;;;;;;;;;;;;;;43.33;14.29;101042.31;5029915;28;19964;-61
2022/10/11 12:32:51;;;;;;;;;;;;;;;43.13;14.25;101044.91;5133718;28;19919;-62
2022/10/11 12:35:30;;;;;;;;;;;;;;;43.13;14.47;101044.91;5103020;28;19951;-62
2022/10/11 12:38:05;;;;;;;;;;;;;;;43.06;14.55;101048.09;5050013;28;19959;-61
2022/10/11 12:40:36;;;;;;;;;;;;;;;43.08;14.36;101054.13;5049180;28;20012;-61
2022/10/11 12:43:21;;;;;;;;;;;;;;;43.04;14.58;101056.38;5049778;28;19925;-62
2022/10/11 12:45:48;;;;;;;;;;;;;;;42.76;14.87;101052.81;5049964;28;19928;-61
2022/10/11 12:48:30;;;;;;;;;;;;;;;42.47;14.83;101061.88;5054126;28;19921;-63
2022/10/11 12:51:22;;;;;;;;;;;;;;;42.41;15.02;101066.66;5082206;28;19926;-62
2022/10/11 12:53:57;;;;;;;;;;;;;;;42.15;15.06;101069.03;5079511;28;19927;-62
2022/10/11 12:56:47;;;;;;;;;;;;;;;42.40;14.78;101068.72;5094252;28;20550;-62
2022/10/11 12:59:18;;;;;;;;;;;;;;;42.38;14.78;101064.75;5066234;28;19921;-62
2022/10/11 13:01:51;;;;;;;;;;;;;;;42.58;14.58;101065.06;5087360;28;20018;-62
2022/10/11 13:04:19;;;;;;;;;;;;;;;42.40;14.80;101068.72;5082200;28;19919;-62
2022/10/11 13:06:45;;;;;;;;;;;;;;;42.52;14.85;101075.53;5095496;28;19977;-63
2022/10/11 13:09:31;;;;;;;;;;;;;;;42.76;14.52;101064.25;5071737;28;19985;-63
2022/10/11 13:12:27;;;;;;;;;;;;;;;42.60;14.67;101073.97;5082084;27;19920;-62